createdAt,value
2018-09-18T00:02:39.509Z,13.70
2018-09-18T00:05:43.706Z,13.60
2018-09-18T00:08:47.937Z,13.60
2018-09-18T00:11:52.128Z,13.50
2018-09-18T00:14:56.357Z,13.50
2018-09-18T00:18:00.539Z,13.40
2018-09-18T00:21:04.743Z,13.40
2018-09-18T00:24:08.961Z,13.30
2018-09-18T00:27:13.172Z,13.30
2018-09-18T00:30:17.373Z,13.20
2018-09-18T00:33:21.585Z,13.20
2018-09-18T00:36:25.803Z,13.10
2018-09-18T00:39:30.029Z,13.10
2018-09-18T00:42:34.216Z,13.00
2018-09-18T00:45:38.424Z,13.00
2018-09-18T00:48:42.660Z,13.00
2018-09-18T00:51:46.866Z,12.90
2018-09-18T00:54:51.095Z,12.90
2018-09-18T00:57:55.441Z,12.90
2018-09-18T01:00:59.637Z,12.80
2018-09-18T01:04:03.830Z,12.80
2018-09-18T01:07:08.156Z,12.80
2018-09-18T01:10:12.358Z,12.70
2018-09-18T01:13:16.577Z,12.60
2018-09-18T01:16:20.768Z,12.60
2018-09-18T01:19:24.990Z,12.60
2018-09-18T01:22:29.209Z,12.50
2018-09-18T01:25:33.459Z,12.40
2018-09-18T01:28:37.824Z,12.40
2018-09-18T01:31:42.025Z,12.30
2018-09-18T01:34:46.222Z,12.30
2018-09-18T01:37:50.546Z,12.30
2018-09-18T01:40:55.369Z,12.20
2018-09-18T01:43:59.580Z,12.20
2018-09-18T01:47:04.841Z,12.10
2018-09-18T01:50:09.055Z,12.10
2018-09-18T01:53:13.252Z,12.00
2018-09-18T01:56:17.490Z,12.00
2018-09-18T01:59:21.932Z,12.00
2018-09-18T02:02:26.165Z,11.90
2018-09-18T02:05:30.397Z,11.90
2018-09-18T02:08:34.601Z,11.90
2018-09-18T02:11:38.824Z,11.80
2018-09-18T02:14:43.024Z,11.90
2018-09-18T02:17:47.261Z,11.80
2018-09-18T02:20:51.482Z,11.80
2018-09-18T02:23:55.689Z,11.70
2018-09-18T02:26:59.905Z,11.70
2018-09-18T02:30:04.148Z,11.70
2018-09-18T02:33:08.353Z,11.70
2018-09-18T02:36:12.577Z,11.70
2018-09-18T02:39:16.800Z,11.70
2018-09-18T02:42:21.796Z,11.60
2018-09-18T02:45:26.026Z,11.60
2018-09-18T02:48:31.331Z,11.50
2018-09-18T02:51:35.512Z,11.50
2018-09-18T02:54:39.739Z,11.50
2018-09-18T02:57:43.947Z,11.50
2018-09-18T03:00:48.176Z,11.50
2018-09-18T03:03:52.389Z,11.50
2018-09-18T03:06:56.616Z,11.40
2018-09-18T03:10:00.841Z,11.40
2018-09-18T03:13:05.032Z,11.40
2018-09-18T03:16:09.317Z,11.30
2018-09-18T03:19:13.512Z,11.40
2018-09-18T03:22:17.701Z,11.30
2018-09-18T03:25:21.888Z,11.30
2018-09-18T03:28:26.093Z,11.20
2018-09-18T03:31:30.325Z,11.20
2018-09-18T03:34:34.521Z,11.30
2018-09-18T03:37:38.732Z,11.30
2018-09-18T03:40:42.950Z,11.20
2018-09-18T03:43:47.156Z,11.30
2018-09-18T03:46:51.365Z,11.30
2018-09-18T03:49:55.603Z,11.20
2018-09-18T03:52:59.801Z,11.30
2018-09-18T03:56:04.013Z,11.20
2018-09-18T03:59:08.228Z,11.20
2018-09-18T04:02:12.453Z,11.10
2018-09-18T04:05:16.653Z,11.10
2018-09-18T04:08:20.888Z,11.10
2018-09-18T04:11:25.106Z,11.10
2018-09-18T04:14:29.325Z,11.00
2018-09-18T04:17:33.629Z,11.00
2018-09-18T04:20:37.864Z,11.00
2018-09-18T04:23:42.064Z,11.00
2018-09-18T04:26:46.277Z,11.00
2018-09-18T04:29:50.487Z,11.00
2018-09-18T04:32:54.697Z,11.00
2018-09-18T04:35:58.920Z,11.00
2018-09-18T04:39:03.141Z,10.90
2018-09-18T04:42:07.409Z,10.90
2018-09-18T04:45:11.609Z,10.90
2018-09-18T04:48:15.829Z,10.90
2018-09-18T04:51:20.090Z,10.90
2018-09-18T04:54:24.301Z,10.90
2018-09-18T04:57:28.521Z,10.90
2018-09-18T05:00:32.711Z,10.80
2018-09-18T05:03:37.073Z,10.80
2018-09-18T05:06:41.288Z,10.90
2018-09-18T05:09:45.490Z,10.80
2018-09-18T05:12:49.713Z,10.90
2018-09-18T05:15:53.938Z,10.80
2018-09-18T05:18:58.208Z,10.80
2018-09-18T05:22:02.420Z,10.80
2018-09-18T05:25:07.245Z,10.80
2018-09-18T05:28:11.599Z,10.90
2018-09-18T05:31:15.840Z,10.90
2018-09-18T05:34:20.061Z,10.90
2018-09-18T05:37:24.264Z,11.00
2018-09-18T05:40:28.458Z,11.00
2018-09-18T05:43:32.680Z,11.00
2018-09-18T05:46:37.320Z,11.00
2018-09-18T05:49:41.509Z,11.10
2018-09-18T05:52:45.760Z,11.20
2018-09-18T05:55:49.973Z,11.20
2018-09-18T05:58:54.177Z,11.30
2018-09-18T06:01:58.929Z,11.30
2018-09-18T06:05:03.130Z,11.40
2018-09-18T06:08:07.357Z,11.50
2018-09-18T06:11:11.576Z,11.60
2018-09-18T06:14:15.770Z,11.70
2018-09-18T06:17:19.996Z,11.80
2018-09-18T06:20:24.192Z,11.90
2018-09-18T06:23:29.938Z,12.10
2018-09-18T06:26:34.165Z,12.20
2018-09-18T06:29:38.492Z,12.30
2018-09-18T06:32:42.696Z,12.40
2018-09-18T06:35:46.930Z,12.50
2018-09-18T06:38:51.124Z,12.60
2018-09-18T06:41:55.337Z,12.80
2018-09-18T06:44:59.574Z,12.90
2018-09-18T06:48:03.855Z,13.10
2018-09-18T06:51:08.059Z,13.20
2018-09-18T06:54:12.261Z,13.40
2018-09-18T06:57:16.473Z,13.60
2018-09-18T07:00:20.678Z,13.70
2018-09-18T07:03:24.881Z,13.90
2018-09-18T07:06:29.095Z,14.10
2018-09-18T07:09:33.325Z,14.20
2018-09-18T07:12:37.548Z,14.40
2018-09-18T07:15:41.740Z,14.50
2018-09-18T07:18:45.966Z,14.70
2018-09-18T07:21:50.181Z,14.80
2018-09-18T07:24:54.495Z,14.90
2018-09-18T07:27:58.602Z,15.10
2018-09-18T07:31:02.829Z,15.20
2018-09-18T07:34:07.132Z,15.40
2018-09-18T07:37:11.353Z,15.60
2018-09-18T07:40:15.585Z,15.80
2018-09-18T07:43:19.864Z,15.90
2018-09-18T07:46:24.099Z,16.00
2018-09-18T07:49:28.318Z,16.20
2018-09-18T07:52:32.550Z,16.40
2018-09-18T07:55:36.798Z,16.60
2018-09-18T07:58:41.004Z,16.70
2018-09-18T08:01:45.217Z,17.00
2018-09-18T08:04:49.417Z,17.10
2018-09-18T08:07:53.612Z,17.40
2018-09-18T08:10:57.870Z,17.50
2018-09-18T08:14:02.057Z,17.60
2018-09-18T08:17:06.770Z,17.80
2018-09-18T08:20:11.037Z,18.00
2018-09-18T08:23:15.272Z,18.20
2018-09-18T08:26:19.463Z,18.30
2018-09-18T08:29:23.702Z,18.50
2018-09-18T08:32:28.007Z,18.60
2018-09-18T08:35:32.218Z,18.90
2018-09-18T08:38:36.612Z,19.00
2018-09-18T08:41:40.813Z,19.20
2018-09-18T08:44:45.021Z,19.30
2018-09-18T08:47:49.262Z,19.40
2018-09-18T08:50:53.478Z,19.60
2018-09-18T08:53:57.733Z,19.70
2018-09-18T08:57:02.043Z,19.80
2018-09-18T09:00:07.064Z,20.00
2018-09-18T09:03:11.277Z,20.10
2018-09-18T09:06:15.529Z,20.30
2018-09-18T09:09:19.775Z,20.40
2018-09-18T09:12:24.000Z,20.60
2018-09-18T09:15:28.330Z,20.60
2018-09-18T09:18:32.674Z,20.70
2018-09-18T09:21:36.805Z,20.80
2018-09-18T09:24:41.141Z,21.00
2018-09-18T09:27:45.425Z,21.00
2018-09-18T09:30:49.634Z,21.20
2018-09-18T09:33:53.855Z,21.20
2018-09-18T09:36:58.951Z,21.30
2018-09-18T09:40:03.145Z,21.40
2018-09-18T09:43:07.349Z,21.50
2018-09-18T09:46:11.572Z,21.50
2018-09-18T09:49:15.817Z,21.60
2018-09-18T09:52:20.040Z,21.60
2018-09-18T09:55:24.296Z,21.60
2018-09-18T09:58:28.526Z,21.70
2018-09-18T10:01:47.741Z,21.90
2018-09-18T10:04:51.949Z,21.80
2018-09-18T10:07:56.158Z,21.90
2018-09-18T10:11:00.410Z,22.00
2018-09-18T10:14:04.632Z,22.00
2018-09-18T10:17:08.838Z,22.10
2018-09-18T10:20:13.053Z,22.30
2018-09-18T10:23:17.254Z,22.30
2018-09-18T10:26:21.624Z,22.40
2018-09-18T10:29:25.687Z,22.40
2018-09-18T10:32:30.059Z,22.40
2018-09-18T10:35:34.284Z,22.50
2018-09-18T10:38:38.516Z,22.60
2018-09-18T10:41:42.732Z,22.60
2018-09-18T10:44:46.938Z,22.60
2018-09-18T10:47:51.146Z,22.70
2018-09-18T10:50:55.381Z,22.80
2018-09-18T10:53:59.595Z,22.90
2018-09-18T10:57:03.819Z,23.00
2018-09-18T11:00:08.704Z,23.00
2018-09-18T11:03:12.936Z,23.10
2018-09-18T11:06:17.109Z,23.20
2018-09-18T11:09:21.364Z,23.30
2018-09-18T11:12:25.575Z,23.40
2018-09-18T11:15:29.947Z,23.50
2018-09-18T11:18:34.174Z,23.60
2018-09-18T11:21:41.677Z,23.60
2018-09-18T11:24:45.921Z,23.70
2018-09-18T11:27:50.082Z,23.90
2018-09-18T11:30:54.277Z,23.90
2018-09-18T11:33:58.496Z,23.90
2018-09-18T11:37:02.702Z,24.00
2018-09-18T11:40:06.913Z,24.00
2018-09-18T11:43:11.108Z,24.20
2018-09-18T11:46:15.301Z,24.20
2018-09-18T11:49:19.493Z,24.30
2018-09-18T11:52:23.741Z,24.30
2018-09-18T11:55:27.960Z,24.40
2018-09-18T11:58:32.301Z,24.50
2018-09-18T12:01:36.405Z,24.70
2018-09-18T12:04:40.767Z,24.80
2018-09-18T12:07:44.845Z,24.80
2018-09-18T12:10:49.058Z,24.90
2018-09-18T12:13:53.272Z,25.10
2018-09-18T12:16:57.495Z,25.20
2018-09-18T12:20:01.713Z,25.40
2018-09-18T12:23:05.929Z,25.50
2018-09-18T12:26:10.149Z,25.50
2018-09-18T12:29:14.348Z,25.50
2018-09-18T12:32:18.566Z,25.60
2018-09-18T12:35:22.842Z,25.60
2018-09-18T12:38:27.008Z,25.70
2018-09-18T12:41:31.308Z,25.80
2018-09-18T12:44:35.505Z,25.80
2018-09-18T12:47:40.455Z,26.00
2018-09-18T12:50:44.707Z,26.10
2018-09-18T12:53:48.969Z,26.00
2018-09-18T12:56:53.168Z,26.00
2018-09-18T12:59:57.449Z,26.00
2018-09-18T13:03:01.589Z,26.00
2018-09-18T13:06:05.899Z,26.10
2018-09-18T13:09:11.906Z,26.20
2018-09-18T13:12:16.121Z,26.20
2018-09-18T13:15:20.360Z,26.30
2018-09-18T13:18:24.641Z,26.40
2018-09-18T13:21:28.848Z,26.50
2018-09-18T13:24:33.082Z,26.50
2018-09-18T13:27:37.369Z,26.50
2018-09-18T13:30:41.605Z,26.60
2018-09-18T13:33:45.864Z,26.70
2018-09-18T13:36:50.080Z,26.70
2018-09-18T13:39:54.297Z,26.80
2018-09-18T13:42:58.492Z,26.90
2018-09-18T13:46:02.746Z,27.00
2018-09-18T13:49:06.999Z,27.10
2018-09-18T13:52:11.230Z,27.10
2018-09-18T13:55:15.455Z,27.10
2018-09-18T13:58:19.707Z,27.20
2018-09-18T14:01:23.993Z,27.20
2018-09-18T14:04:28.268Z,27.30
2018-09-18T14:07:32.368Z,27.30
2018-09-18T14:10:36.621Z,27.40
2018-09-18T14:13:40.846Z,27.40
2018-09-18T14:16:45.065Z,27.50
2018-09-18T14:19:49.281Z,27.50
2018-09-18T14:22:53.510Z,27.60
2018-09-18T14:25:57.766Z,27.70
2018-09-18T14:29:02.003Z,27.80
2018-09-18T14:32:06.213Z,27.90
2018-09-18T14:35:10.477Z,28.00
2018-09-18T14:38:14.793Z,28.00
2018-09-18T14:41:18.993Z,28.00
2018-09-18T14:44:23.197Z,27.90
2018-09-18T14:47:28.418Z,27.90
2018-09-18T14:50:32.649Z,27.90
2018-09-18T14:53:36.919Z,27.90
2018-09-18T14:56:41.151Z,27.90
2018-09-18T14:59:45.385Z,28.00
2018-09-18T15:02:49.609Z,27.90
2018-09-18T15:05:53.861Z,27.80
2018-09-18T15:08:58.065Z,27.30
2018-09-18T15:12:02.331Z,26.80
2018-09-18T15:15:06.520Z,26.40
2018-09-18T15:18:10.751Z,25.80
2018-09-18T15:21:14.950Z,25.40
2018-09-18T15:24:19.301Z,25.10
2018-09-18T15:27:23.561Z,24.90
2018-09-18T15:30:27.756Z,24.70
2018-09-18T15:33:32.203Z,24.40
2018-09-18T15:36:36.389Z,24.30
2018-09-18T15:39:40.691Z,24.10
2018-09-18T15:42:44.850Z,23.90
2018-09-18T15:45:49.083Z,23.70
2018-09-18T15:48:53.265Z,23.60
2018-09-18T15:51:57.551Z,23.40
2018-09-18T15:55:01.809Z,23.20
2018-09-18T15:58:06.038Z,23.10
2018-09-18T16:01:10.257Z,23.00
2018-09-18T16:04:14.465Z,23.00
2018-09-18T16:07:18.689Z,22.80
2018-09-18T16:10:22.925Z,22.80
2018-09-18T16:13:27.137Z,22.70
2018-09-18T16:16:31.437Z,22.70
2018-09-18T16:19:35.624Z,22.70
2018-09-18T16:22:39.910Z,22.70
2018-09-18T16:25:44.088Z,22.60
2018-09-18T16:28:48.313Z,22.20
2018-09-18T16:31:52.553Z,21.90
2018-09-18T16:34:56.816Z,21.60
2018-09-18T16:38:01.029Z,21.50
2018-09-18T16:41:05.421Z,21.20
2018-09-18T16:44:09.628Z,21.10
2018-09-18T16:47:13.860Z,20.90
2018-09-18T16:50:18.057Z,20.80
2018-09-18T16:53:22.290Z,20.70
2018-09-18T16:56:26.489Z,20.50
2018-09-18T16:59:30.717Z,20.40
2018-09-18T17:02:34.953Z,20.30
2018-09-18T17:05:39.157Z,20.30
2018-09-18T17:08:43.365Z,20.20
2018-09-18T17:11:47.560Z,20.00
2018-09-18T17:14:51.746Z,20.00
2018-09-18T17:17:55.991Z,19.90
2018-09-18T17:21:00.197Z,19.90
2018-09-18T17:24:04.489Z,19.80
2018-09-18T17:27:08.705Z,19.70
2018-09-18T17:30:12.940Z,19.60
2018-09-18T17:33:17.174Z,19.60
2018-09-18T17:36:21.415Z,19.50
2018-09-18T17:39:25.603Z,19.50
2018-09-18T17:42:29.962Z,19.40
2018-09-18T17:45:34.173Z,19.40
2018-09-18T17:48:38.380Z,19.40
2018-09-18T17:51:42.584Z,19.30
2018-09-18T17:54:46.816Z,19.40
2018-09-18T17:57:51.033Z,19.20
2018-09-18T18:00:55.251Z,19.30
2018-09-18T18:03:59.565Z,19.20
2018-09-18T18:07:03.798Z,19.10
2018-09-18T18:10:08.060Z,19.10
2018-09-18T18:13:12.284Z,19.10
2018-09-18T18:16:16.494Z,19.10
2018-09-18T18:19:20.717Z,19.10
2018-09-18T18:22:24.950Z,19.00
2018-09-18T18:25:29.157Z,19.00
2018-09-18T18:28:33.372Z,19.00
2018-09-18T18:31:37.582Z,18.90
2018-09-18T18:34:41.766Z,18.90
2018-09-18T18:37:45.974Z,18.90
2018-09-18T18:40:50.225Z,18.90
2018-09-18T18:43:54.385Z,18.90
2018-09-18T18:46:58.630Z,18.80
2018-09-18T18:50:02.860Z,18.70
2018-09-18T18:53:07.056Z,18.80
2018-09-18T18:56:11.297Z,18.70
2018-09-18T18:59:15.503Z,18.70
2018-09-18T19:02:19.730Z,18.80
2018-09-18T19:05:23.945Z,18.70
2018-09-18T19:08:28.198Z,18.70
2018-09-18T19:11:32.420Z,18.70
2018-09-18T19:14:36.673Z,18.70
2018-09-18T19:17:40.940Z,18.70
2018-09-18T19:20:45.311Z,18.70
2018-09-18T19:23:49.594Z,18.70
2018-09-18T19:26:53.814Z,18.60
2018-09-18T19:29:58.088Z,18.60
2018-09-18T19:33:02.406Z,18.50
2018-09-18T19:36:06.698Z,18.50
2018-09-18T19:39:12.011Z,18.50
2018-09-18T19:42:16.351Z,18.50
2018-09-18T19:45:20.625Z,18.50
2018-09-18T19:48:24.876Z,18.40
2018-09-18T19:51:29.086Z,18.30
2018-09-18T19:54:33.316Z,18.30
2018-09-18T19:57:37.770Z,18.30
2018-09-18T20:00:42.008Z,18.20
2018-09-18T20:03:46.223Z,18.20
2018-09-18T20:06:50.421Z,18.20
2018-09-18T20:09:54.677Z,18.20
2018-09-18T20:12:58.876Z,18.10
2018-09-18T20:16:04.253Z,18.10
2018-09-18T20:19:08.452Z,18.10
2018-09-18T20:22:12.688Z,18.10
2018-09-18T20:25:16.913Z,18.10
2018-09-18T20:28:21.110Z,18.10
2018-09-18T20:31:25.305Z,18.10
2018-09-18T20:34:29.561Z,18.10
2018-09-18T20:37:33.762Z,18.10
2018-09-18T20:40:37.984Z,18.00
2018-09-18T20:43:42.173Z,18.00
2018-09-18T20:46:46.389Z,18.00
2018-09-18T20:49:50.613Z,18.00
2018-09-18T20:52:55.845Z,18.00
2018-09-18T20:56:00.173Z,18.00
2018-09-18T20:59:04.378Z,18.00
2018-09-18T21:02:08.610Z,18.00
2018-09-18T21:05:12.810Z,17.90
2018-09-18T21:08:17.037Z,17.80
2018-09-18T21:11:21.260Z,17.80
2018-09-18T21:14:25.482Z,17.80
2018-09-18T21:17:29.708Z,17.80
2018-09-18T21:20:33.904Z,17.80
2018-09-18T21:23:38.118Z,17.80
2018-09-18T21:26:42.336Z,17.80
2018-09-18T21:29:46.536Z,17.80
2018-09-18T21:32:51.539Z,17.70
2018-09-18T21:35:55.737Z,17.70
2018-09-18T21:38:59.965Z,17.60
2018-09-18T21:42:04.209Z,17.60
2018-09-18T21:45:08.433Z,17.60
2018-09-18T21:48:12.645Z,17.50
2018-09-18T21:51:16.854Z,17.50
2018-09-18T21:54:21.080Z,17.50
2018-09-18T21:57:25.269Z,17.40
2018-09-18T22:00:29.597Z,17.50
2018-09-18T22:03:34.786Z,17.40
2018-09-18T22:06:39.022Z,17.30
2018-09-18T22:09:43.308Z,17.30
2018-09-18T22:12:47.659Z,17.20
2018-09-18T22:15:51.896Z,17.20
2018-09-18T22:18:56.087Z,17.20
2018-09-18T22:22:00.297Z,17.10
2018-09-18T22:25:04.556Z,17.20
2018-09-18T22:28:08.760Z,17.10
2018-09-18T22:31:12.968Z,17.10
2018-09-18T22:34:17.196Z,17.10
2018-09-18T22:37:21.424Z,17.10
2018-09-18T22:40:25.621Z,17.10
2018-09-18T22:43:29.923Z,17.10
2018-09-18T22:46:34.086Z,17.00
2018-09-18T22:49:38.308Z,17.00
2018-09-18T22:52:42.537Z,17.00
2018-09-18T22:55:46.791Z,16.90
2018-09-18T22:58:51.016Z,16.90
2018-09-18T23:01:55.217Z,16.80
2018-09-18T23:04:59.444Z,16.80
2018-09-18T23:08:03.652Z,16.80
2018-09-18T23:11:07.889Z,16.70
2018-09-18T23:14:12.109Z,16.80
2018-09-18T23:17:17.169Z,16.80
2018-09-18T23:20:21.392Z,16.70
2018-09-18T23:23:25.680Z,16.70
2018-09-18T23:26:29.896Z,16.70
2018-09-18T23:29:34.122Z,16.70
2018-09-18T23:32:38.332Z,16.70
2018-09-18T23:35:42.555Z,16.70
2018-09-18T23:38:46.768Z,16.70
2018-09-18T23:41:50.996Z,16.70
2018-09-18T23:44:55.210Z,16.70
2018-09-18T23:47:59.421Z,16.70
2018-09-18T23:51:03.646Z,16.70
2018-09-18T23:54:07.985Z,16.60
2018-09-18T23:57:12.182Z,16.60
